createdAt,value
2023-01-07T00:01:27.703Z,97681.56
2023-01-07T00:03:55.913Z,97684.47
2023-01-07T00:06:26.927Z,97683.16
2023-01-07T00:08:55.816Z,97683.16
2023-01-07T00:11:25.621Z,97684.00
2023-01-07T00:13:54.561Z,97686.38
2023-01-07T00:16:23.344Z,97681.88
2023-01-07T00:18:54.240Z,97686.38
2023-01-07T00:21:22.712Z,97686.06
2023-01-07T00:23:53.421Z,97692.59
2023-01-07T00:26:21.439Z,97695.53
2023-01-07T00:28:50.101Z,97695.63
2023-01-07T00:31:17.901Z,97689.59
2023-01-07T00:33:52.087Z,97693.91
2023-01-07T00:36:19.786Z,97682.00
2023-01-07T00:38:46.550Z,97699.84
2023-01-07T00:41:13.856Z,97695.53
2023-01-07T00:43:40.486Z,97692.31
2023-01-07T00:46:07.196Z,97701.53
2023-01-07T00:48:33.783Z,97702.63
2023-01-07T00:51:00.423Z,97709.97
2023-01-07T00:53:29.774Z,97698.41
2023-01-07T00:55:56.573Z,97716.78
2023-01-07T00:58:26.427Z,97720.56
2023-01-07T01:00:57.879Z,97714.56
2023-01-07T01:03:25.161Z,97720.81
2023-01-07T01:05:51.978Z,97720.00
2023-01-07T01:08:19.167Z,97721.09
2023-01-07T01:10:45.995Z,97719.78
2023-01-07T01:13:16.208Z,97736.03
2023-01-07T01:15:47.065Z,97721.78
2023-01-07T01:18:14.003Z,97722.06
2023-01-07T01:20:40.672Z,97727.47
2023-01-07T01:23:13.195Z,97728.59
2023-01-07T01:25:39.826Z,97735.72
2023-01-07T01:28:07.242Z,97737.91
2023-01-07T01:30:33.760Z,97742.81
2023-01-07T01:33:00.384Z,97734.75
2023-01-07T01:35:27.493Z,97743.72
2023-01-07T01:37:54.102Z,97736.44
2023-01-07T01:40:20.760Z,97740.75
2023-01-07T01:42:47.391Z,97743.78
2023-01-07T01:45:14.112Z,97737.53
2023-01-07T01:47:43.586Z,97741.38
2023-01-07T01:50:19.972Z,97751.91
2023-01-07T01:53:05.328Z,97747.78
2023-01-07T01:55:38.420Z,97740.75
2023-01-07T01:58:10.117Z,97752.41
2023-01-07T02:00:36.840Z,97747.78
2023-01-07T02:03:08.134Z,97741.59
2023-01-07T02:05:40.616Z,97743.47
2023-01-07T02:08:08.190Z,97740.75
2023-01-07T02:10:35.368Z,97739.78
2023-01-07T02:13:20.934Z,97739.16
2023-01-07T02:16:18.771Z,97749.19
2023-01-07T02:18:51.465Z,97751.38
2023-01-07T02:21:30.446Z,97747.38
2023-01-07T02:24:18.833Z,97755.00
2023-01-07T02:27:10.469Z,97747.97
2023-01-07T02:30:01.724Z,97757.19
2023-01-07T02:32:46.569Z,97752.56
2023-01-07T02:35:31.706Z,97754.78
2023-01-07T02:38:08.944Z,97769.41
2023-01-07T02:40:47.953Z,97760.25
2023-01-07T02:43:40.174Z,97766.25
2023-01-07T02:46:34.857Z,97761.38
2023-01-07T02:49:07.615Z,97752.44
2023-01-07T02:51:36.590Z,97753.81
2023-01-07T02:54:05.333Z,97757.41
2023-01-07T02:57:02.457Z,97748.59
2023-01-07T03:00:03.777Z,97755.16
2023-01-07T03:02:54.863Z,97753.84
2023-01-07T03:05:33.549Z,97763.06
2023-01-07T03:08:32.677Z,97763.06
2023-01-07T03:11:10.243Z,97749.91
2023-01-07T03:14:02.485Z,97755.72
2023-01-07T03:16:42.075Z,97770.06
2023-01-07T03:19:30.554Z,97766.56
2023-01-07T03:22:00.000Z,97766.56
2023-01-07T03:24:28.645Z,97761.44
2023-01-07T03:26:58.349Z,97767.94
2023-01-07T03:29:25.365Z,97762.25
2023-01-07T03:32:04.938Z,97767.66
2023-01-07T03:34:34.460Z,97770.34
2023-01-07T03:37:05.876Z,97766.56
2023-01-07T03:39:35.394Z,97774.66
2023-01-07T03:42:25.556Z,97761.44
2023-01-07T03:44:52.283Z,97759.63
2023-01-07T03:47:19.495Z,97749.69
2023-01-07T03:49:46.314Z,97759.19
2023-01-07T03:52:12.971Z,97755.75
2023-01-07T03:54:39.553Z,97753.91
2023-01-07T03:57:06.150Z,97756.25
2023-01-07T03:59:32.782Z,97766.56
2023-01-07T04:01:59.444Z,97767.44
2023-01-07T04:04:26.268Z,97780.19
2023-01-07T04:06:52.965Z,97780.78
2023-01-07T04:09:19.622Z,97769.97
2023-01-07T04:11:46.247Z,97773.97
2023-01-07T04:14:12.904Z,97777.78
2023-01-07T04:16:39.637Z,97776.47
2023-01-07T04:19:06.235Z,97771.06
2023-01-07T04:21:32.997Z,97768.63
2023-01-07T04:23:59.658Z,97781.34
2023-01-07T04:26:26.285Z,97783.75
2023-01-07T04:28:52.931Z,97768.94
2023-01-07T04:31:19.493Z,97767.84
2023-01-07T04:33:46.092Z,97770.53
2023-01-07T04:36:13.781Z,97764.91
2023-01-07T04:38:40.510Z,97765.25
2023-01-07T04:41:07.186Z,97770.72
2023-01-07T04:43:34.180Z,97770.16
2023-01-07T04:46:00.962Z,97766.94
2023-01-07T04:48:27.660Z,97767.78
2023-01-07T04:50:54.340Z,97776.69
2023-01-07T04:53:21.101Z,97789.13
2023-01-07T04:55:47.688Z,97782.56
2023-01-07T04:58:14.255Z,97774.13
2023-01-07T05:00:40.939Z,97780.25
2023-01-07T05:03:07.536Z,97785.38
2023-01-07T05:05:35.181Z,97789.16
2023-01-07T05:08:01.930Z,97780.78
2023-01-07T05:10:28.570Z,97789.63
2023-01-07T05:12:55.156Z,97792.84
2023-01-07T05:15:21.797Z,97793.84
2023-01-07T05:17:48.355Z,97791.41
2023-01-07T05:20:15.701Z,97791.66
2023-01-07T05:22:42.238Z,97794.69
2023-01-07T05:25:09.281Z,97792.75
2023-01-07T05:27:40.016Z,97780.69
2023-01-07T05:30:07.140Z,97791.25
2023-01-07T05:32:33.816Z,97791.28
2023-01-07T05:35:00.445Z,97790.59
2023-01-07T05:37:27.071Z,97801.34
2023-01-07T05:39:53.701Z,97786.84
2023-01-07T05:42:20.372Z,97809.50
2023-01-07T05:44:46.938Z,97803.38
2023-01-07T05:47:13.707Z,97813.38
2023-01-07T05:49:40.437Z,97796.34
2023-01-07T05:52:07.673Z,97812.88
2023-01-07T05:54:34.327Z,97809.34
2023-01-07T05:57:00.904Z,97809.59
2023-01-07T05:59:27.581Z,97806.28
2023-01-07T06:01:54.219Z,97804.63
2023-01-07T06:04:21.065Z,97805.16
2023-01-07T06:06:47.740Z,97805.16
2023-01-07T06:09:14.426Z,97810.03
2023-01-07T06:11:40.977Z,97805.72
2023-01-07T06:14:07.509Z,97805.44
2023-01-07T06:16:34.077Z,97810.56
2023-01-07T06:19:00.781Z,97811.34
2023-01-07T06:21:27.810Z,97804.09
2023-01-07T06:23:55.704Z,97804.69
2023-01-07T06:26:23.414Z,97801.50
2023-01-07T06:28:52.489Z,97808.47
2023-01-07T06:31:19.016Z,97788.28
2023-01-07T06:33:45.676Z,97816.31
2023-01-07T06:36:12.264Z,97810.09
2023-01-07T06:38:38.914Z,97799.63
2023-01-07T06:41:05.656Z,97813.88
2023-01-07T06:43:32.353Z,97811.47
2023-01-07T06:45:59.114Z,97809.91
2023-01-07T06:48:25.852Z,97804.81
2023-01-07T06:50:53.021Z,97802.75
2023-01-07T06:53:19.740Z,97807.03
2023-01-07T06:55:50.686Z,97805.16
2023-01-07T06:58:18.256Z,97805.94
2023-01-07T07:00:45.547Z,97814.03
2023-01-07T07:03:12.244Z,97810.78
2023-01-07T07:05:39.116Z,97804.81
2023-01-07T07:08:06.516Z,97804.00
2023-01-07T07:10:33.539Z,97798.19
2023-01-07T07:13:01.381Z,97815.44
2023-01-07T07:15:28.069Z,97820.59
2023-01-07T07:17:54.709Z,97811.47
2023-01-07T07:20:21.419Z,97808.22
2023-01-07T07:22:51.036Z,97817.44
2023-01-07T07:25:17.668Z,97809.41
2023-01-07T07:27:46.460Z,97812.88
2023-01-07T07:30:16.847Z,97807.78
2023-01-07T07:32:43.548Z,97806.63
2023-01-07T07:35:11.685Z,97819.00
2023-01-07T07:37:38.640Z,97817.56
2023-01-07T07:40:06.676Z,97819.97
2023-01-07T07:43:09.514Z,97807.16
2023-01-07T07:45:19.997Z,97823.56
2023-01-07T07:47:46.921Z,97816.13
2023-01-07T07:50:13.832Z,97823.47
2023-01-07T07:52:40.947Z,97823.72
2023-01-07T07:55:20.598Z,97825.88
2023-01-07T07:57:57.024Z,97816.91
2023-01-07T08:00:23.901Z,97820.38
2023-01-07T08:02:50.570Z,97823.97
2023-01-07T08:05:17.374Z,97831.00
2023-01-07T08:07:43.991Z,97823.72
2023-01-07T08:10:10.576Z,97831.56
2023-01-07T08:12:38.565Z,97845.25
2023-01-07T08:15:07.121Z,97839.84
2023-01-07T08:17:34.206Z,97837.41
2023-01-07T08:20:00.847Z,97824.66
2023-01-07T08:22:27.445Z,97834.13
2023-01-07T08:24:54.082Z,97830.56
2023-01-07T08:27:21.162Z,97816.19
2023-01-07T08:29:47.930Z,97817.75
2023-01-07T08:32:14.567Z,97824.84
2023-01-07T08:34:46.929Z,97814.91
2023-01-07T08:37:13.593Z,97826.19
2023-01-07T08:39:40.279Z,97818.00
2023-01-07T08:42:06.891Z,97815.66
2023-01-07T08:44:34.751Z,97828.34
2023-01-07T08:47:01.518Z,97830.97
2023-01-07T08:49:28.221Z,97832.53
2023-01-07T08:51:54.867Z,97837.63
2023-01-07T08:54:21.503Z,97834.13
2023-01-07T08:56:48.069Z,97838.50
2023-01-07T08:59:14.762Z,97836.31
2023-01-07T09:01:41.569Z,97826.75
2023-01-07T09:04:08.440Z,97825.66
2023-01-07T09:06:35.076Z,97832.97
2023-01-07T09:09:01.835Z,97822.44
2023-01-07T09:11:28.615Z,97840.97
2023-01-07T09:13:55.545Z,97829.84
2023-01-07T09:16:22.166Z,97830.66
2023-01-07T09:18:48.968Z,97827.72
2023-01-07T09:21:15.771Z,97844.00
2023-01-07T09:23:42.443Z,97848.75
2023-01-07T09:26:09.554Z,97844.38
2023-01-07T09:28:36.114Z,97851.81
2023-01-07T09:31:03.266Z,97842.34
2023-01-07T09:33:30.189Z,97849.25
2023-01-07T09:36:02.565Z,97844.56
2023-01-07T09:38:30.217Z,97845.53
2023-01-07T09:40:56.982Z,97848.91
2023-01-07T09:44:00.862Z,97844.88
2023-01-07T09:46:23.556Z,97839.78
2023-01-07T09:48:58.020Z,97823.94
2023-01-07T09:51:37.133Z,97818.16
2023-01-07T09:54:06.568Z,97822.78
2023-01-07T09:56:35.771Z,97815.38
2023-01-07T09:59:05.406Z,97811.34
2023-01-07T10:01:38.411Z,97824.22
2023-01-07T10:04:34.474Z,97816.47
2023-01-07T10:07:39.989Z,97809.34
2023-01-07T10:10:20.408Z,97809.94
2023-01-07T10:12:52.909Z,97797.41
2023-01-07T10:15:52.507Z,97796.59
2023-01-07T10:18:31.515Z,97787.50
2023-01-07T10:21:20.903Z,97788.91
2023-01-07T10:23:57.541Z,97784.91
2023-01-07T10:26:38.027Z,97788.69
2023-01-07T10:29:29.094Z,97785.97
2023-01-07T10:31:58.664Z,97785.97
2023-01-07T10:37:12.863Z,97774.91
2023-01-07T10:39:45.343Z,97784.69
2023-01-07T10:42:30.770Z,97781.25
2023-01-07T10:45:19.147Z,97792.31
2023-01-07T10:47:54.348Z,97785.16
2023-01-07T10:50:27.876Z,97785.88
2023-01-07T10:53:09.745Z,97776.75
2023-01-07T10:56:20.473Z,97775.41
2023-01-07T10:58:49.176Z,97771.72
2023-01-07T11:01:29.877Z,97775.31
2023-01-07T11:03:59.609Z,97768.88
2023-01-07T11:06:42.813Z,97768.03
2023-01-07T11:09:14.891Z,97766.31
2023-01-07T11:11:43.049Z,97768.66
2023-01-07T11:14:19.488Z,97761.78
2023-01-07T11:16:51.908Z,97759.97
2023-01-07T11:19:18.866Z,97742.66
2023-01-07T11:21:56.889Z,97742.13
2023-01-07T11:24:33.033Z,97739.69
2023-01-07T11:27:04.114Z,97734.91
2023-01-07T11:29:41.503Z,97731.53
2023-01-07T11:32:20.575Z,97726.72
2023-01-07T11:34:59.648Z,97727.59
2023-01-07T11:37:38.432Z,97732.88
2023-01-07T11:40:14.040Z,97728.56
2023-01-07T11:42:53.671Z,97725.34
2023-01-07T11:45:25.058Z,97735.94
2023-01-07T11:48:07.619Z,97732.16
2023-01-07T11:50:43.951Z,97723.16
2023-01-07T11:53:13.548Z,97726.06
2023-01-07T11:55:54.961Z,97715.63
2023-01-07T11:58:30.141Z,97712.88
2023-01-07T12:01:09.912Z,97717.97
2023-01-07T12:03:42.000Z,97711.72
2023-01-07T12:06:11.613Z,97705.44
2023-01-07T12:08:42.335Z,97706.66
2023-01-07T12:11:14.806Z,97702.94
2023-01-07T12:13:48.308Z,97707.03
2023-01-07T12:16:15.350Z,97703.59
2023-01-07T12:18:57.968Z,97706.97
2023-01-07T12:21:34.768Z,97702.44
2023-01-07T12:24:04.227Z,97696.16
2023-01-07T12:26:47.967Z,97703.13
2023-01-07T12:29:20.215Z,97697.66
2023-01-07T12:32:20.176Z,97697.47
2023-01-07T12:35:15.249Z,97685.94
2023-01-07T12:37:48.677Z,97697.09
2023-01-07T12:40:17.944Z,97689.78
2023-01-07T12:42:53.964Z,97681.00
2023-01-07T12:45:31.242Z,97674.94
2023-01-07T12:48:04.103Z,97678.97
2023-01-07T12:50:40.652Z,97685.41
2023-01-07T12:53:44.396Z,97676.81
2023-01-07T12:56:24.970Z,97675.72
2023-01-07T12:58:59.384Z,97677.03
2023-01-07T13:01:29.984Z,97677.66
2023-01-07T13:04:09.241Z,97672.66
2023-01-07T13:06:47.636Z,97668.78
2023-01-07T13:09:39.152Z,97667.28
2023-01-07T13:12:41.980Z,97660.03
2023-01-07T13:15:31.303Z,97667.69
2023-01-07T13:18:17.222Z,97664.78
2023-01-07T13:21:07.756Z,97665.41
2023-01-07T13:24:07.499Z,97672.75
2023-01-07T13:26:49.386Z,97667.63
2023-01-07T13:29:21.961Z,97663.00
2023-01-07T13:32:15.389Z,97657.88
2023-01-07T13:34:50.764Z,97662.50
2023-01-07T13:37:41.233Z,97660.59
2023-01-07T13:40:13.694Z,97676.06
2023-01-07T13:43:01.736Z,97673.38
2023-01-07T13:45:31.903Z,97663.63
2023-01-07T13:48:03.091Z,97660.41
2023-01-07T13:50:55.072Z,97650.97
2023-01-07T13:53:21.988Z,97660.22
2023-01-07T13:55:48.885Z,97658.63
2023-01-07T13:58:30.633Z,97656.84
2023-01-07T14:01:08.836Z,97660.66
2023-01-07T14:04:02.542Z,97642.88
2023-01-07T14:06:39.271Z,97655.97
2023-01-07T14:09:11.124Z,97656.88
2023-01-07T14:11:39.051Z,97655.88
2023-01-07T14:14:22.231Z,97655.19
2023-01-07T14:17:16.317Z,97646.38
2023-01-07T14:19:50.375Z,97651.91
2023-01-07T14:22:48.690Z,97643.09
2023-01-07T14:25:33.548Z,97641.91
2023-01-07T14:28:23.243Z,97642.53
2023-01-07T14:30:51.942Z,97641.44
2023-01-07T14:33:23.725Z,97641.97
2023-01-07T14:36:06.395Z,97646.56
2023-01-07T14:38:33.032Z,97641.44
2023-01-07T14:41:03.525Z,97650.56
2023-01-07T14:43:42.328Z,97650.16
2023-01-07T14:46:16.615Z,97646.72
2023-01-07T14:48:44.246Z,97652.81
2023-01-07T14:51:48.657Z,97644.69
2023-01-07T14:54:46.060Z,97638.13
2023-01-07T14:57:36.003Z,97632.97
2023-01-07T15:00:41.249Z,97629.72
2023-01-07T15:03:46.223Z,97641.25
2023-01-07T15:06:39.307Z,97634.91
2023-01-07T15:09:28.433Z,97629.34
2023-01-07T15:12:17.748Z,97624.88
2023-01-07T15:15:07.966Z,97622.03
2023-01-07T15:17:39.395Z,97619.75
2023-01-07T15:20:07.219Z,97604.84
2023-01-07T15:22:43.855Z,97618.63
2023-01-07T15:25:29.728Z,97621.13
2023-01-07T15:28:15.088Z,97619.56
2023-01-07T15:31:04.989Z,97614.72
2023-01-07T15:33:40.464Z,97610.94
2023-01-07T15:36:11.340Z,97610.88
2023-01-07T15:38:50.291Z,97607.88
2023-01-07T15:41:47.257Z,97611.19
2023-01-07T15:44:40.548Z,97604.75
2023-01-07T15:47:38.164Z,97606.63
2023-01-07T15:50:37.746Z,97608.31
2023-01-07T15:53:10.584Z,97614.63
2023-01-07T15:55:40.454Z,97595.63
2023-01-07T15:58:22.569Z,97606.72
2023-01-07T16:00:54.559Z,97610.75
2023-01-07T16:03:22.075Z,97611.94
2023-01-07T16:05:48.971Z,97611.09
2023-01-07T16:08:19.906Z,97607.66
2023-01-07T16:11:03.288Z,97603.91
2023-01-07T16:13:31.561Z,97601.28
2023-01-07T16:16:03.357Z,97594.63
2023-01-07T16:18:34.172Z,97609.38
2023-01-07T16:21:06.135Z,97616.94
2023-01-07T16:23:35.533Z,97609.94
2023-01-07T16:26:43.398Z,97609.44
2023-01-07T16:29:17.509Z,97588.56
2023-01-07T16:31:44.719Z,97591.03
2023-01-07T16:34:23.577Z,97599.69
2023-01-07T16:36:54.449Z,97599.56
2023-01-07T16:39:24.612Z,97598.63
2023-01-07T16:42:11.892Z,97593.28
2023-01-07T16:44:57.803Z,97611.13
2023-01-07T16:47:29.751Z,97606.91
2023-01-07T16:50:17.806Z,97596.19
2023-01-07T16:52:56.340Z,97594.09
2023-01-07T16:55:46.256Z,97594.41
2023-01-07T16:58:27.826Z,97594.72
2023-01-07T17:00:57.345Z,97585.09
2023-01-07T17:03:25.757Z,97589.69
2023-01-07T17:06:23.665Z,97591.34
2023-01-07T17:08:53.946Z,97575.53
2023-01-07T17:11:39.040Z,97574.47
2023-01-07T17:14:34.175Z,97595.16
2023-01-07T17:17:02.694Z,97587.38
2023-01-07T17:20:01.278Z,97588.44
2023-01-07T17:22:40.543Z,97582.28
2023-01-07T17:25:20.444Z,97570.22
2023-01-07T17:27:57.819Z,97578.28
2023-01-07T17:30:31.485Z,97575.88
2023-01-07T17:32:58.133Z,97568.09
2023-01-07T17:35:25.308Z,97585.25
2023-01-07T17:37:53.360Z,97568.63
2023-01-07T17:40:20.678Z,97590.94
2023-01-07T17:43:08.559Z,97581.53
2023-01-07T17:45:44.301Z,97588.25
2023-01-07T17:48:15.283Z,97572.44
2023-01-07T17:50:42.728Z,97577.53
2023-01-07T17:53:31.354Z,97585.06
2023-01-07T17:55:58.251Z,97582.91
2023-01-07T17:58:37.672Z,97578.09
2023-01-07T18:01:10.123Z,97582.91
2023-01-07T18:03:36.956Z,97577.53
2023-01-07T18:06:12.082Z,97574.59
2023-01-07T18:08:40.220Z,97576.22
2023-01-07T18:11:25.912Z,97574.31
2023-01-07T18:13:53.316Z,97579.16
2023-01-07T18:16:19.990Z,97577.00
2023-01-07T18:18:46.894Z,97585.34
2023-01-07T18:21:14.724Z,97586.94
2023-01-07T18:23:41.426Z,97588.03
2023-01-07T18:26:31.037Z,97592.31
2023-01-07T18:28:57.881Z,97587.47
2023-01-07T18:31:24.615Z,97588.28
2023-01-07T18:33:51.247Z,97587.72
2023-01-07T18:36:18.261Z,97585.03
2023-01-07T18:38:44.908Z,97582.63
2023-01-07T18:41:11.579Z,97586.13
2023-01-07T18:43:38.862Z,97572.94
2023-01-07T18:46:09.799Z,97576.72
2023-01-07T18:48:38.129Z,97573.22
2023-01-07T18:51:11.653Z,97574.53
2023-01-07T18:53:39.109Z,97575.88
2023-01-07T18:56:11.663Z,97556.50
2023-01-07T18:58:39.617Z,97561.06
2023-01-07T19:01:07.848Z,97560.53
2023-01-07T19:03:35.020Z,97569.69
2023-01-07T19:06:06.517Z,97579.31
2023-01-07T19:08:33.252Z,97578.50
2023-01-07T19:10:59.806Z,97576.59
2023-01-07T19:13:26.523Z,97576.31
2023-01-07T19:15:53.234Z,97574.47
2023-01-07T19:18:19.939Z,97581.16
2023-01-07T19:20:46.757Z,97568.00
2023-01-07T19:23:13.471Z,97568.25
2023-01-07T19:25:40.033Z,97578.75
2023-01-07T19:28:06.628Z,97576.06
2023-01-07T19:30:33.547Z,97577.38
2023-01-07T19:33:01.130Z,97567.47
2023-01-07T19:35:28.207Z,97577.16
2023-01-07T19:37:55.161Z,97571.78
2023-01-07T19:40:21.784Z,97570.69
2023-01-07T19:42:48.921Z,97578.97
2023-01-07T19:45:15.572Z,97557.78
2023-01-07T19:47:42.665Z,97573.91
2023-01-07T19:50:09.579Z,97558.88
2023-01-07T19:52:36.195Z,97562.88
2023-01-07T19:55:02.966Z,97568.50
2023-01-07T19:57:29.681Z,97563.69
2023-01-07T19:59:56.382Z,97558.59
2023-01-07T20:02:23.190Z,97547.06
2023-01-07T20:04:50.565Z,97559.13
2023-01-07T20:07:17.152Z,97559.63
2023-01-07T20:09:43.812Z,97551.31
2023-01-07T20:12:10.419Z,97554.28
2023-01-07T20:14:38.383Z,97554.03
2023-01-07T20:17:05.219Z,97544.91
2023-01-07T20:19:32.007Z,97541.41
2023-01-07T20:21:58.738Z,97551.34
2023-01-07T20:24:25.970Z,97547.06
2023-01-07T20:26:54.562Z,97544.06
2023-01-07T20:29:21.837Z,97539.25
2023-01-07T20:31:48.597Z,97540.06
2023-01-07T20:34:15.179Z,97533.59
2023-01-07T20:36:41.864Z,97536.25
2023-01-07T20:39:09.872Z,97537.00
2023-01-07T20:41:38.915Z,97529.72
2023-01-07T20:44:08.942Z,97531.56
2023-01-07T20:46:36.346Z,97525.09
2023-01-07T20:49:03.158Z,97535.56
2023-01-07T20:51:29.991Z,97530.16
2023-01-07T20:53:57.352Z,97522.63
2023-01-07T20:56:24.980Z,97524.25
2023-01-07T20:58:51.633Z,97519.13
2023-01-07T21:01:20.673Z,97527.44
2023-01-07T21:03:47.909Z,97527.44
2023-01-07T21:06:17.880Z,97526.31
2023-01-07T21:08:46.925Z,97526.88
2023-01-07T21:11:18.965Z,97510.53
2023-01-07T21:13:45.991Z,97519.44
2023-01-07T21:16:14.048Z,97522.63
2023-01-07T21:18:41.581Z,97516.22
2023-01-07T21:21:12.128Z,97514.41
2023-01-07T21:23:39.381Z,97509.88
2023-01-07T21:26:07.122Z,97512.78
2023-01-07T21:28:34.705Z,97517.34
2023-01-07T21:31:09.339Z,97517.28
2023-01-07T21:33:36.508Z,97511.88
2023-01-07T21:36:16.135Z,97525.25
2023-01-07T21:38:43.343Z,97511.78
2023-01-07T21:41:15.431Z,97522.16
2023-01-07T21:43:42.460Z,97513.56
2023-01-07T21:46:09.407Z,97515.91
2023-01-07T21:48:38.462Z,97506.53
2023-01-07T21:51:08.342Z,97509.44
2023-01-07T21:53:36.151Z,97496.78
2023-01-07T21:56:17.280Z,97505.09
2023-01-07T21:58:45.512Z,97518.47
2023-01-07T22:01:12.780Z,97504.25
2023-01-07T22:03:39.635Z,97511.78
2023-01-07T22:06:18.551Z,97515.81
2023-01-07T22:08:45.265Z,97507.28
2023-01-07T22:11:17.260Z,97501.13
2023-01-07T22:16:10.820Z,97495.47
2023-01-07T22:18:37.431Z,97495.50
2023-01-07T22:21:04.143Z,97493.91
2023-01-07T22:23:30.871Z,97497.63
2023-01-07T22:26:06.156Z,97490.09
2023-01-07T22:28:35.817Z,97496.00
2023-01-07T22:31:10.508Z,97497.13
2023-01-07T22:33:37.086Z,97493.44
2023-01-07T22:36:04.160Z,97488.88
2023-01-07T22:38:32.247Z,97485.13
2023-01-07T22:40:59.606Z,97485.94
2023-01-07T22:43:26.559Z,97485.41
2023-01-07T22:46:02.567Z,97479.16
2023-01-07T22:48:33.795Z,97473.31
2023-01-07T22:51:20.033Z,97464.81
2023-01-07T22:53:51.128Z,97466.78
2023-01-07T22:56:18.425Z,97459.25
2023-01-07T22:58:44.991Z,97451.50
2023-01-07T23:01:14.188Z,97451.50
2023-01-07T23:03:43.269Z,97443.47
2023-01-07T23:06:12.982Z,97443.78
2023-01-07T23:08:40.896Z,97437.91
2023-01-07T23:11:08.295Z,97439.53
2023-01-07T23:13:35.258Z,97417.91
2023-01-07T23:18:30.959Z,97424.09
2023-01-07T23:20:58.126Z,97417.66
2023-01-07T23:23:24.819Z,97413.66
2023-01-07T23:25:51.676Z,97421.47
2023-01-07T23:28:19.469Z,97408.59
2023-01-07T23:30:46.150Z,97415.31
2023-01-07T23:33:12.731Z,97408.09
2023-01-07T23:35:39.300Z,97405.38
2023-01-07T23:38:05.975Z,97398.97
2023-01-07T23:40:32.578Z,97400.59
2023-01-07T23:42:59.221Z,97407.59
2023-01-07T23:45:25.983Z,97396.31
2023-01-07T23:47:52.674Z,97405.44
2023-01-07T23:50:21.897Z,97394.44
2023-01-07T23:52:48.505Z,97388.28
2023-01-07T23:55:26.006Z,97393.13
2023-01-07T23:57:53.531Z,97379.72
